createdAt,value
2023-03-26T00:02:15.550Z,10.10
2023-03-26T00:04:46.786Z,10.10
2023-03-26T00:07:16.154Z,10.10
2023-03-26T00:09:45.273Z,10.10
2023-03-26T00:12:14.101Z,10.10
2023-03-26T00:14:44.956Z,10.00
2023-03-26T00:17:13.682Z,10.00
2023-03-26T00:19:43.193Z,10.00
2023-03-26T00:22:13.738Z,10.00
2023-03-26T00:24:45.971Z,10.00
2023-03-26T00:27:14.866Z,10.00
2023-03-26T00:29:45.318Z,10.00
2023-03-26T00:32:14.088Z,10.00
2023-03-26T00:34:46.368Z,10.00
2023-03-26T00:37:15.430Z,9.90
2023-03-26T00:39:44.840Z,9.90
2023-03-26T00:42:15.172Z,9.90
2023-03-26T00:44:45.528Z,9.90
2023-03-26T00:47:17.627Z,9.90
2023-03-26T00:49:46.910Z,9.90
2023-03-26T00:52:18.831Z,10.00
2023-03-26T00:54:48.234Z,10.00
2023-03-26T00:57:28.983Z,10.00
2023-03-26T01:00:11.352Z,10.00
2023-03-26T01:02:40.851Z,10.00
2023-03-26T01:05:53.323Z,10.00
2023-03-26T01:08:31.456Z,10.00
2023-03-26T01:11:07.323Z,10.00
2023-03-26T01:13:39.522Z,10.00
2023-03-26T01:16:20.551Z,10.00
2023-03-26T01:18:52.785Z,9.90
2023-03-26T01:21:30.512Z,9.90
2023-03-26T01:24:02.902Z,10.00
2023-03-26T01:26:52.918Z,10.00
2023-03-26T01:29:31.943Z,10.00
2023-03-26T01:32:15.612Z,9.90
2023-03-26T01:35:02.981Z,9.90
2023-03-26T01:37:42.901Z,9.80
2023-03-26T01:40:25.575Z,9.70
2023-03-26T01:43:05.264Z,9.70
2023-03-26T01:45:39.762Z,9.70
2023-03-26T01:48:09.851Z,9.80
2023-03-26T01:50:38.719Z,9.70
2023-03-26T01:53:10.411Z,9.70
2023-03-26T01:55:56.128Z,9.70
2023-03-26T01:58:37.119Z,9.70
2023-03-26T02:01:27.923Z,9.70
2023-03-26T02:04:09.560Z,9.70
2023-03-26T02:06:45.928Z,9.70
2023-03-26T02:09:24.129Z,9.70
2023-03-26T02:11:55.896Z,9.70
2023-03-26T02:14:24.865Z,9.70
2023-03-26T02:16:53.715Z,9.60
2023-03-26T02:19:24.722Z,9.60
2023-03-26T02:21:53.582Z,9.70
2023-03-26T02:24:22.662Z,9.70
2023-03-26T02:26:51.431Z,9.70
2023-03-26T02:29:22.389Z,9.60
2023-03-26T02:31:51.332Z,9.60
2023-03-26T02:34:20.183Z,9.60
2023-03-26T02:36:48.991Z,9.60
2023-03-26T02:39:17.848Z,9.60
2023-03-26T02:41:46.599Z,9.60
2023-03-26T02:44:15.512Z,9.60
2023-03-26T02:46:45.748Z,9.60
2023-03-26T02:49:14.777Z,9.60
2023-03-26T02:51:43.773Z,9.60
2023-03-26T02:54:12.795Z,9.50
2023-03-26T02:56:41.672Z,9.50
2023-03-26T02:59:10.932Z,9.60
2023-03-26T03:01:43.061Z,9.60
2023-03-26T03:04:14.443Z,9.60
2023-03-26T03:06:44.839Z,9.70
2023-03-26T03:09:14.530Z,9.70
2023-03-26T03:11:43.532Z,9.80
2023-03-26T03:14:12.537Z,9.80
2023-03-26T03:16:41.615Z,9.80
2023-03-26T03:19:12.131Z,9.90
2023-03-26T03:21:42.437Z,10.00
2023-03-26T03:24:14.019Z,10.00
2023-03-26T03:26:45.800Z,9.90
2023-03-26T03:29:14.636Z,9.90
2023-03-26T03:31:47.439Z,9.90
2023-03-26T03:34:18.037Z,9.90
2023-03-26T03:36:48.683Z,9.90
2023-03-26T03:39:17.628Z,9.90
2023-03-26T03:41:46.564Z,9.80
2023-03-26T03:44:15.514Z,9.90
2023-03-26T03:46:44.395Z,9.90
2023-03-26T03:49:13.416Z,9.90
2023-03-26T03:51:43.675Z,10.00
2023-03-26T03:54:12.618Z,10.00
2023-03-26T03:56:41.723Z,10.00
2023-03-26T03:59:10.629Z,10.00
2023-03-26T04:01:43.259Z,10.00
2023-03-26T04:04:12.380Z,10.00
2023-03-26T04:06:42.605Z,10.00
2023-03-26T04:09:11.552Z,9.90
2023-03-26T04:11:40.341Z,9.90
2023-03-26T04:14:10.308Z,9.90
2023-03-26T04:16:39.235Z,9.90
2023-03-26T04:19:08.630Z,9.80
2023-03-26T04:21:37.908Z,9.80
2023-03-26T04:24:09.007Z,9.80
2023-03-26T04:26:37.892Z,9.70
2023-03-26T04:29:12.972Z,9.70
2023-03-26T04:31:43.253Z,9.70
2023-03-26T04:34:24.503Z,9.70
2023-03-26T04:36:55.055Z,9.70
2023-03-26T04:39:29.218Z,9.70
2023-03-26T04:41:58.442Z,9.70
2023-03-26T04:44:30.570Z,9.70
2023-03-26T04:46:59.331Z,9.70
2023-03-26T04:49:28.354Z,9.70
2023-03-26T04:51:57.315Z,9.80
2023-03-26T04:54:27.520Z,9.80
2023-03-26T04:57:00.614Z,9.80
2023-03-26T04:59:34.845Z,9.80
2023-03-26T05:02:05.912Z,9.90
2023-03-26T05:04:36.951Z,9.90
2023-03-26T05:07:06.112Z,9.90
2023-03-26T05:09:36.642Z,10.00
2023-03-26T05:12:05.983Z,10.10
2023-03-26T05:14:36.248Z,10.20
2023-03-26T05:17:06.457Z,10.20
2023-03-26T05:19:35.492Z,10.20
2023-03-26T05:22:04.401Z,10.10
2023-03-26T05:24:33.225Z,10.10
2023-03-26T05:27:03.440Z,10.20
2023-03-26T05:29:32.235Z,10.50
2023-03-26T05:32:01.021Z,10.70
2023-03-26T05:34:29.753Z,11.20
2023-03-26T05:36:58.398Z,11.80
2023-03-26T05:39:27.753Z,12.30
2023-03-26T05:41:56.711Z,12.70
2023-03-26T05:44:27.001Z,12.60
2023-03-26T05:46:55.763Z,12.40
2023-03-26T05:49:24.653Z,12.70
2023-03-26T05:51:55.033Z,13.30
2023-03-26T05:54:24.498Z,13.50
2023-03-26T05:56:53.272Z,13.90
2023-03-26T05:59:21.978Z,14.60
2023-03-26T06:01:54.613Z,15.10
2023-03-26T06:04:23.442Z,14.80
2023-03-26T06:06:52.809Z,15.10
2023-03-26T06:09:21.891Z,15.40
2023-03-26T06:11:50.640Z,15.20
2023-03-26T06:14:19.363Z,14.60
2023-03-26T06:16:48.112Z,14.10
2023-03-26T06:19:18.512Z,13.90
2023-03-26T06:21:47.387Z,13.70
2023-03-26T06:24:19.866Z,13.70
2023-03-26T06:26:49.122Z,13.90
2023-03-26T06:29:18.114Z,14.30
2023-03-26T06:31:47.016Z,15.10
2023-03-26T06:34:17.489Z,16.30
2023-03-26T06:36:46.274Z,16.50
2023-03-26T06:39:14.978Z,16.70
2023-03-26T06:41:43.687Z,16.70
2023-03-26T06:44:12.476Z,16.30
2023-03-26T06:46:41.500Z,15.80
2023-03-26T06:49:10.376Z,15.30
2023-03-26T06:51:41.720Z,15.10
2023-03-26T06:54:10.821Z,14.90
2023-03-26T06:56:39.547Z,14.60
2023-03-26T06:59:08.410Z,14.20
2023-03-26T07:01:37.613Z,14.00
2023-03-26T07:04:06.953Z,14.10
2023-03-26T07:06:35.796Z,14.20
2023-03-26T07:09:06.332Z,14.20
2023-03-26T07:11:35.630Z,14.30
2023-03-26T07:14:04.450Z,14.30
2023-03-26T07:16:33.479Z,14.40
2023-03-26T07:19:02.297Z,14.40
2023-03-26T07:21:32.177Z,14.40
2023-03-26T07:24:02.002Z,14.60
2023-03-26T07:26:41.957Z,14.60
2023-03-26T07:29:19.272Z,14.70
2023-03-26T07:32:01.722Z,15.20
2023-03-26T07:34:47.646Z,15.20
2023-03-26T07:37:37.626Z,15.00
2023-03-26T07:40:18.935Z,14.90
2023-03-26T07:43:03.391Z,14.90
2023-03-26T07:45:40.993Z,15.90
2023-03-26T07:48:18.442Z,17.40
2023-03-26T07:50:48.582Z,18.20
2023-03-26T07:53:18.185Z,19.20
2023-03-26T07:55:56.341Z,19.30
2023-03-26T07:58:58.373Z,19.60
2023-03-26T08:01:47.519Z,19.50
2023-03-26T08:04:49.494Z,19.60
2023-03-26T08:07:31.788Z,20.20
2023-03-26T08:10:13.284Z,20.30
2023-03-26T08:12:56.473Z,20.20
2023-03-26T08:15:33.772Z,20.00
2023-03-26T08:18:17.217Z,20.60
2023-03-26T08:20:51.505Z,21.30
2023-03-26T08:23:30.809Z,21.50
2023-03-26T08:26:06.887Z,21.90
2023-03-26T08:29:00.099Z,22.40
2023-03-26T08:31:35.941Z,22.50
2023-03-26T08:34:05.319Z,22.70
2023-03-26T08:36:34.302Z,23.00
2023-03-26T08:39:03.049Z,23.50
2023-03-26T08:42:27.633Z,23.60
2023-03-26T08:45:42.982Z,23.30
2023-03-26T08:49:03.215Z,23.60
2023-03-26T08:52:26.277Z,23.10
2023-03-26T08:55:35.174Z,23.30
2023-03-26T08:58:53.462Z,23.70
2023-03-26T09:02:05.664Z,23.70
2023-03-26T09:05:36.306Z,23.50
2023-03-26T09:09:02.317Z,22.90
2023-03-26T09:12:06.447Z,23.40
2023-03-26T09:15:34.535Z,23.80
2023-03-26T09:18:57.682Z,24.10
2023-03-26T09:22:27.261Z,23.90
2023-03-26T09:25:43.127Z,23.00
2023-03-26T09:28:52.601Z,22.60
2023-03-26T09:32:05.075Z,23.60
2023-03-26T09:34:48.852Z,24.70
2023-03-26T09:37:36.453Z,24.00
2023-03-26T09:40:38.135Z,23.50
2023-03-26T09:43:57.638Z,23.40
2023-03-26T09:46:39.970Z,22.20
2023-03-26T09:49:26.792Z,21.30
2023-03-26T09:52:17.737Z,21.70
2023-03-26T09:55:15.736Z,22.10
2023-03-26T09:58:16.528Z,21.80
2023-03-26T10:00:51.399Z,21.20
2023-03-26T10:03:42.385Z,21.40
2023-03-26T10:06:47.352Z,22.00
2023-03-26T10:09:38.350Z,22.40
2023-03-26T10:12:21.609Z,21.70
2023-03-26T10:15:04.444Z,21.90
2023-03-26T10:17:51.875Z,21.50
2023-03-26T10:20:39.208Z,21.90
2023-03-26T10:23:38.778Z,22.10
2023-03-26T10:26:33.639Z,21.60
2023-03-26T10:29:38.855Z,21.00
2023-03-26T10:32:23.960Z,20.60
2023-03-26T10:35:08.395Z,20.30
2023-03-26T10:38:03.515Z,20.30
2023-03-26T10:40:43.041Z,20.40
2023-03-26T10:44:07.344Z,20.50
2023-03-26T10:47:23.818Z,20.60
2023-03-26T10:50:24.720Z,20.30
2023-03-26T10:53:01.995Z,19.80
2023-03-26T10:55:38.400Z,19.70
2023-03-26T10:58:18.833Z,20.20
2023-03-26T11:00:57.484Z,20.70
2023-03-26T11:03:52.180Z,20.50
2023-03-26T11:06:34.904Z,20.50
2023-03-26T11:09:23.895Z,20.80
2023-03-26T11:12:03.021Z,20.30
2023-03-26T11:15:04.686Z,20.40
2023-03-26T11:17:47.155Z,20.00
2023-03-26T11:20:22.185Z,19.90
2023-03-26T11:23:09.174Z,19.90
2023-03-26T11:26:00.776Z,19.90
2023-03-26T11:29:31.733Z,19.60
2023-03-26T11:32:07.353Z,19.60
2023-03-26T11:34:41.693Z,19.30
2023-03-26T11:37:21.689Z,19.10
2023-03-26T11:39:57.370Z,18.80
2023-03-26T11:42:26.750Z,18.70
2023-03-26T11:44:59.791Z,18.70
2023-03-26T11:47:38.399Z,18.60
2023-03-26T11:50:16.431Z,18.70
2023-03-26T11:52:47.142Z,18.80
2023-03-26T11:55:16.109Z,18.60
2023-03-26T11:57:54.367Z,18.60
2023-03-26T12:00:27.618Z,18.60
2023-03-26T12:02:59.865Z,18.70
2023-03-26T12:05:33.602Z,18.70
2023-03-26T12:08:18.909Z,19.10
2023-03-26T12:11:02.091Z,19.30
2023-03-26T12:13:38.380Z,19.40
2023-03-26T12:16:14.142Z,19.40
2023-03-26T12:18:45.389Z,19.40
2023-03-26T12:21:16.856Z,19.30
2023-03-26T12:23:57.822Z,19.20
2023-03-26T12:26:41.430Z,19.00
2023-03-26T12:29:14.446Z,18.80
2023-03-26T12:31:50.896Z,19.00
2023-03-26T12:34:23.117Z,19.00
2023-03-26T12:36:59.609Z,18.80
2023-03-26T12:40:07.964Z,18.60
2023-03-26T12:44:52.752Z,18.70
2023-03-26T12:45:24.662Z,18.60
2023-03-26T12:48:03.551Z,18.50
2023-03-26T12:50:57.452Z,18.50
2023-03-26T12:53:58.630Z,18.60
2023-03-26T12:56:38.757Z,18.80
2023-03-26T12:59:34.343Z,18.90
2023-03-26T13:02:29.437Z,18.70
2023-03-26T13:05:15.942Z,18.50
2023-03-26T13:08:05.533Z,18.30
2023-03-26T13:10:51.663Z,18.20
2023-03-26T13:13:58.281Z,18.30
2023-03-26T13:16:38.392Z,18.20
2023-03-26T13:19:14.881Z,18.20
2023-03-26T13:22:01.087Z,18.20
2023-03-26T13:24:47.870Z,18.10
2023-03-26T13:27:38.068Z,18.20
2023-03-26T13:30:31.402Z,18.30
2023-03-26T13:33:36.600Z,18.30
2023-03-26T13:36:23.956Z,18.00
2023-03-26T13:39:19.912Z,18.10
2023-03-26T13:42:12.911Z,18.20
2023-03-26T13:45:04.544Z,18.40
2023-03-26T13:47:40.602Z,18.20
2023-03-26T13:50:23.480Z,17.90
2023-03-26T13:53:00.760Z,17.90
2023-03-26T13:55:36.118Z,17.80
2023-03-26T13:58:14.893Z,17.80
2023-03-26T14:00:55.861Z,17.80
2023-03-26T14:03:35.811Z,17.80
2023-03-26T14:06:22.308Z,17.90
2023-03-26T14:08:59.892Z,17.90
2023-03-26T14:11:45.066Z,18.00
2023-03-26T14:14:20.605Z,17.70
2023-03-26T14:16:56.720Z,17.60
2023-03-26T14:20:33.160Z,17.60
2023-03-26T14:23:49.854Z,17.50
2023-03-26T14:26:38.772Z,17.50
2023-03-26T14:29:32.580Z,17.40
2023-03-26T14:32:24.501Z,17.50
2023-03-26T14:35:28.741Z,17.40
2023-03-26T14:39:16.121Z,17.30
2023-03-26T14:41:53.825Z,17.20
2023-03-26T14:45:07.427Z,17.20
2023-03-26T14:47:48.683Z,17.10
2023-03-26T14:50:55.265Z,16.90
2023-03-26T14:53:34.538Z,16.80
2023-03-26T14:56:40.326Z,16.80
2023-03-26T15:00:20.128Z,16.80
2023-03-26T15:03:38.710Z,16.70
2023-03-26T15:07:03.853Z,16.60
2023-03-26T15:10:22.803Z,16.70
2023-03-26T15:13:16.124Z,16.50
2023-03-26T15:16:16.780Z,16.50
2023-03-26T15:19:54.486Z,16.40
2023-03-26T15:23:17.181Z,16.40
2023-03-26T15:26:52.489Z,16.40
2023-03-26T15:30:21.226Z,16.40
2023-03-26T15:34:01.231Z,16.40
2023-03-26T15:37:17.764Z,16.40
2023-03-26T15:40:45.612Z,16.40
2023-03-26T15:43:16.561Z,16.30
2023-03-26T15:45:54.316Z,16.40
2023-03-26T15:48:58.733Z,16.40
2023-03-26T15:51:53.271Z,16.30
2023-03-26T15:54:31.990Z,16.30
2023-03-26T15:57:28.739Z,16.30
2023-03-26T16:00:22.913Z,16.30
2023-03-26T16:03:14.875Z,16.30
2023-03-26T16:06:08.789Z,16.20
2023-03-26T16:08:53.328Z,16.10
2023-03-26T16:11:54.340Z,16.20
2023-03-26T16:14:39.518Z,16.20
2023-03-26T16:17:16.091Z,16.10
2023-03-26T16:20:04.235Z,16.10
2023-03-26T16:22:57.314Z,16.20
2023-03-26T16:25:33.667Z,16.20
2023-03-26T16:28:34.817Z,16.20
2023-03-26T16:31:36.796Z,16.30
2023-03-26T16:34:29.719Z,16.20
2023-03-26T16:37:01.224Z,16.20
2023-03-26T16:39:45.351Z,16.20
2023-03-26T16:42:39.732Z,16.20
2023-03-26T16:45:27.390Z,16.20
2023-03-26T16:48:07.429Z,16.20
2023-03-26T16:50:48.697Z,16.20
2023-03-26T16:53:34.487Z,16.20
2023-03-26T16:56:14.865Z,16.20
2023-03-26T16:58:56.374Z,16.10
2023-03-26T17:01:43.046Z,16.10
2023-03-26T17:04:20.853Z,16.10
2023-03-26T17:07:13.981Z,16.00
2023-03-26T17:10:00.694Z,16.00
2023-03-26T17:12:42.904Z,16.10
2023-03-26T17:15:36.544Z,16.00
2023-03-26T17:18:35.716Z,16.00
2023-03-26T17:21:12.183Z,15.90
2023-03-26T17:24:04.976Z,15.70
2023-03-26T17:26:52.318Z,15.50
2023-03-26T17:29:45.123Z,15.40
2023-03-26T17:32:15.902Z,15.20
2023-03-26T17:35:02.327Z,15.10
2023-03-26T17:37:48.112Z,15.00
2023-03-26T17:40:51.051Z,15.10
2023-03-26T17:43:44.761Z,15.10
2023-03-26T17:46:33.185Z,15.10
2023-03-26T17:49:09.601Z,15.10
2023-03-26T17:51:50.491Z,15.00
2023-03-26T17:54:28.222Z,14.90
2023-03-26T17:57:03.191Z,14.90
2023-03-26T17:59:34.208Z,15.00
2023-03-26T18:02:12.783Z,14.90
2023-03-26T18:04:47.894Z,14.80
2023-03-26T18:08:27.951Z,14.80
2023-03-26T18:11:26.349Z,14.80
2023-03-26T18:14:37.124Z,14.70
2023-03-26T18:17:06.689Z,14.60
2023-03-26T18:19:50.765Z,14.70
2023-03-26T18:22:25.395Z,14.50
2023-03-26T18:25:00.898Z,14.30
2023-03-26T18:27:39.333Z,14.20
2023-03-26T18:30:20.697Z,14.20
2023-03-26T18:33:00.136Z,14.20
2023-03-26T18:35:41.791Z,14.30
2023-03-26T18:38:35.985Z,14.30
2023-03-26T18:41:09.557Z,14.20
2023-03-26T18:43:44.696Z,14.10
2023-03-26T18:46:16.928Z,14.00
2023-03-26T18:48:47.548Z,13.90
2023-03-26T18:51:23.156Z,14.00
2023-03-26T18:53:57.859Z,13.90
2023-03-26T18:56:33.825Z,13.70
2023-03-26T18:59:06.228Z,13.60
2023-03-26T19:01:39.234Z,13.60
2023-03-26T19:04:09.498Z,13.70
2023-03-26T19:06:44.331Z,13.70
2023-03-26T19:09:30.293Z,13.70
2023-03-26T19:12:06.961Z,13.60
2023-03-26T19:14:51.795Z,13.60
2023-03-26T19:17:22.984Z,13.60
2023-03-26T19:19:53.019Z,13.50
2023-03-26T19:22:24.491Z,13.50
2023-03-26T19:25:00.983Z,13.60
2023-03-26T19:27:30.479Z,13.50
2023-03-26T19:29:59.778Z,13.50
2023-03-26T19:32:34.710Z,13.60
2023-03-26T19:35:04.614Z,13.50
2023-03-26T19:37:33.939Z,13.50
2023-03-26T19:40:14.263Z,13.40
2023-03-26T19:42:45.248Z,13.40
2023-03-26T19:45:21.820Z,13.40
2023-03-26T19:48:07.502Z,13.30
2023-03-26T19:50:46.036Z,13.30
2023-03-26T19:53:24.215Z,13.20
2023-03-26T19:55:58.933Z,13.30
2023-03-26T19:58:28.855Z,13.30
2023-03-26T20:00:57.993Z,13.30
2023-03-26T20:03:31.834Z,13.20
2023-03-26T20:06:00.670Z,13.20
2023-03-26T20:08:29.587Z,13.30
2023-03-26T20:10:59.652Z,13.30
2023-03-26T20:13:30.326Z,13.30
2023-03-26T20:16:07.517Z,13.30
2023-03-26T20:18:42.926Z,13.30
2023-03-26T20:21:13.746Z,13.20
2023-03-26T20:23:43.179Z,13.20
2023-03-26T20:26:15.238Z,13.30
2023-03-26T20:28:47.822Z,13.40
2023-03-26T20:31:22.222Z,13.40
2023-03-26T20:33:54.234Z,13.40
2023-03-26T20:36:33.946Z,13.50
2023-03-26T20:39:06.643Z,13.30
2023-03-26T20:41:38.410Z,13.30
2023-03-26T20:44:16.770Z,13.30
2023-03-26T20:46:48.396Z,13.30
2023-03-26T20:49:19.336Z,13.20
2023-03-26T20:51:48.998Z,13.30
2023-03-26T20:54:23.165Z,13.10
2023-03-26T20:56:53.562Z,13.10
2023-03-26T20:59:26.810Z,13.10
2023-03-26T21:01:59.494Z,13.00
2023-03-26T21:04:29.972Z,13.10
2023-03-26T21:07:10.896Z,13.20
2023-03-26T21:09:45.141Z,13.20
2023-03-26T21:12:26.193Z,13.20
2023-03-26T21:14:55.842Z,13.20
2023-03-26T21:17:26.235Z,13.10
2023-03-26T21:20:00.465Z,13.10
2023-03-26T21:22:40.487Z,13.00
2023-03-26T21:25:28.606Z,13.10
2023-03-26T21:28:17.254Z,13.10
2023-03-26T21:30:48.469Z,13.10
2023-03-26T21:33:17.793Z,13.10
2023-03-26T21:35:53.149Z,13.00
2023-03-26T21:38:23.391Z,13.00
2023-03-26T21:40:58.945Z,12.90
2023-03-26T21:43:28.551Z,12.90
2023-03-26T21:45:58.157Z,12.90
2023-03-26T21:48:27.649Z,12.80
2023-03-26T21:51:02.512Z,12.80
2023-03-26T21:53:32.045Z,12.70
2023-03-26T21:56:19.316Z,12.80
2023-03-26T21:58:59.708Z,12.70
2023-03-26T22:01:38.310Z,12.70
2023-03-26T22:04:18.359Z,12.70
2023-03-26T22:06:56.840Z,12.70
2023-03-26T22:09:35.567Z,12.70
2023-03-26T22:12:05.476Z,12.70
2023-03-26T22:14:34.503Z,12.60
2023-03-26T22:17:03.361Z,12.60
2023-03-26T22:19:32.290Z,12.50
2023-03-26T22:22:02.962Z,12.50
2023-03-26T22:24:32.212Z,12.50
2023-03-26T22:27:00.901Z,12.50
2023-03-26T22:29:29.966Z,12.50
2023-03-26T22:31:58.914Z,12.50
2023-03-26T22:34:27.637Z,12.50
2023-03-26T22:36:56.332Z,12.50
2023-03-26T22:39:27.277Z,12.40
2023-03-26T22:41:55.998Z,12.30
2023-03-26T22:44:24.729Z,12.20
2023-03-26T22:46:54.518Z,12.10
2023-03-26T22:49:26.564Z,12.10
2023-03-26T22:51:59.213Z,12.20
2023-03-26T22:54:29.572Z,12.10
2023-03-26T22:56:58.364Z,12.10
2023-03-26T22:59:27.307Z,12.10
2023-03-26T23:01:56.717Z,12.00
2023-03-26T23:04:31.149Z,12.00
2023-03-26T23:07:01.527Z,12.10
2023-03-26T23:09:36.383Z,12.10
2023-03-26T23:12:08.778Z,12.10
2023-03-26T23:14:38.127Z,12.10
2023-03-26T23:17:07.051Z,12.10
2023-03-26T23:19:37.111Z,12.10
2023-03-26T23:22:08.359Z,12.00
2023-03-26T23:24:39.577Z,12.00
2023-03-26T23:27:08.309Z,11.90
2023-03-26T23:29:37.400Z,12.00
2023-03-26T23:32:24.306Z,12.00
2023-03-26T23:34:55.844Z,11.90
2023-03-26T23:37:24.616Z,11.80
2023-03-26T23:39:55.206Z,11.70
2023-03-26T23:42:29.606Z,11.80
2023-03-26T23:44:58.940Z,11.80
2023-03-26T23:47:34.297Z,11.70
2023-03-26T23:50:03.935Z,11.60
2023-03-26T23:52:33.145Z,11.70
2023-03-26T23:55:03.308Z,11.60
2023-03-26T23:57:32.002Z,11.70
